createdAt,value
2019-03-30T00:01:22.721Z,25.00
2019-03-30T00:04:15.917Z,25.10
2019-03-30T00:07:11.435Z,25.10
2019-03-30T00:10:04.134Z,25.20
2019-03-30T00:12:58.137Z,25.30
2019-03-30T00:15:51.377Z,25.40
2019-03-30T00:18:44.186Z,25.50
2019-03-30T00:21:36.820Z,25.50
2019-03-30T00:24:29.514Z,25.60
2019-03-30T00:27:22.447Z,25.60
2019-03-30T00:30:15.198Z,25.70
2019-03-30T00:33:08.198Z,25.70
2019-03-30T00:36:01.329Z,25.80
2019-03-30T00:38:55.017Z,25.80
2019-03-30T00:41:47.702Z,25.80
2019-03-30T00:44:40.649Z,25.90
2019-03-30T00:47:33.590Z,25.90
2019-03-30T00:50:26.387Z,26.00
2019-03-30T00:53:19.409Z,26.00
2019-03-30T00:56:12.576Z,26.10
2019-03-30T00:59:05.391Z,26.10
2019-03-30T01:01:58.363Z,26.10
2019-03-30T01:04:51.183Z,26.10
2019-03-30T01:07:44.120Z,26.20
2019-03-30T01:10:37.084Z,26.20
2019-03-30T01:13:30.391Z,26.20
2019-03-30T01:16:23.415Z,26.30
2019-03-30T01:19:16.290Z,26.30
2019-03-30T01:22:08.850Z,26.50
2019-03-30T01:25:01.699Z,26.50
2019-03-30T01:27:54.662Z,26.50
2019-03-30T01:30:47.581Z,26.50
2019-03-30T01:33:40.209Z,26.50
2019-03-30T01:36:33.043Z,26.60
2019-03-30T01:39:26.405Z,26.60
2019-03-30T01:42:19.437Z,26.60
2019-03-30T01:45:12.436Z,26.70
2019-03-30T01:48:07.259Z,26.70
2019-03-30T01:51:02.476Z,26.70
2019-03-30T01:53:55.667Z,26.70
2019-03-30T01:56:48.490Z,26.70
2019-03-30T01:59:41.947Z,26.80
2019-03-30T02:02:35.231Z,26.80
2019-03-30T02:05:28.525Z,26.80
2019-03-30T02:08:21.528Z,26.80
2019-03-30T02:11:14.563Z,26.90
2019-03-30T02:14:07.556Z,26.80
2019-03-30T02:17:01.015Z,26.90
2019-03-30T02:19:54.159Z,27.00
2019-03-30T02:22:47.286Z,27.00
2019-03-30T02:25:41.194Z,27.10
2019-03-30T02:28:37.025Z,27.10
2019-03-30T02:31:30.046Z,27.20
2019-03-30T02:34:23.980Z,27.20
2019-03-30T02:37:16.972Z,27.20
2019-03-30T02:40:10.274Z,27.30
2019-03-30T02:43:03.289Z,27.30
2019-03-30T02:45:56.371Z,27.30
2019-03-30T02:48:49.344Z,27.40
2019-03-30T02:51:42.609Z,27.40
2019-03-30T02:54:35.568Z,27.40
2019-03-30T02:57:32.108Z,27.40
2019-03-30T03:00:24.977Z,27.50
2019-03-30T03:03:18.512Z,27.50
2019-03-30T03:06:11.843Z,27.50
2019-03-30T03:09:08.839Z,27.50
2019-03-30T03:12:01.479Z,27.50
2019-03-30T03:15:01.627Z,27.50
2019-03-30T03:18:10.643Z,27.50
2019-03-30T03:21:26.534Z,27.60
2019-03-30T03:24:21.661Z,27.60
2019-03-30T03:27:18.620Z,27.50
2019-03-30T03:30:17.708Z,27.50
2019-03-30T03:33:11.441Z,27.50
2019-03-30T03:36:04.769Z,27.60
2019-03-30T03:39:05.382Z,27.50
2019-03-30T03:42:02.127Z,27.50
2019-03-30T03:44:56.774Z,27.50
2019-03-30T03:47:50.156Z,27.50
2019-03-30T03:50:47.109Z,27.50
2019-03-30T03:53:40.623Z,27.50
2019-03-30T03:56:34.912Z,27.60
2019-03-30T03:59:32.182Z,27.60
2019-03-30T04:02:26.550Z,27.70
2019-03-30T04:05:25.738Z,27.70
2019-03-30T04:08:20.529Z,27.80
2019-03-30T04:14:46.348Z,27.90
2019-03-30T04:18:06.589Z,27.90
2019-03-30T04:20:58.688Z,27.90
2019-03-30T04:23:56.304Z,27.90
2019-03-30T04:26:53.070Z,27.70
2019-03-30T04:29:46.300Z,27.50
2019-03-30T04:32:39.223Z,27.30
2019-03-30T04:35:35.354Z,27.10
2019-03-30T04:38:29.996Z,27.10
2019-03-30T04:41:31.616Z,27.10
2019-03-30T04:44:24.978Z,26.90
2019-03-30T04:47:18.447Z,26.50
2019-03-30T04:50:11.497Z,26.30
2019-03-30T04:53:06.294Z,26.20
2019-03-30T04:55:59.323Z,26.10
2019-03-30T05:02:43.716Z,25.90
2019-03-30T05:05:42.864Z,25.80
2019-03-30T05:08:34.996Z,25.80
2019-03-30T05:11:28.494Z,25.70
2019-03-30T05:14:22.143Z,25.60
2019-03-30T05:20:57.114Z,25.70
2019-03-30T05:23:53.926Z,26.40
2019-03-30T05:26:48.958Z,26.70
2019-03-30T05:29:47.527Z,26.90
2019-03-30T05:32:46.797Z,27.10
2019-03-30T05:35:39.897Z,27.30
2019-03-30T05:38:41.158Z,27.40
2019-03-30T05:41:38.478Z,27.50
2019-03-30T05:44:44.318Z,27.60
2019-03-30T05:47:56.226Z,27.70
2019-03-30T05:50:51.893Z,27.80
2019-03-30T05:54:08.513Z,27.90
2019-03-30T05:57:09.236Z,27.90
2019-03-30T06:00:04.117Z,28.00
2019-03-30T06:03:01.598Z,28.00
2019-03-30T06:05:56.402Z,28.10
2019-03-30T06:08:54.360Z,28.10
2019-03-30T06:12:09.241Z,28.10
2019-03-30T06:15:03.297Z,28.20
2019-03-30T06:18:11.387Z,28.20
2019-03-30T06:21:15.426Z,28.30
2019-03-30T06:24:14.855Z,28.30
2019-03-30T06:27:22.066Z,28.30
2019-03-30T06:30:20.228Z,28.40
2019-03-30T06:33:13.878Z,28.40
2019-03-30T06:36:07.014Z,28.40
2019-03-30T06:39:06.042Z,28.40
2019-03-30T06:42:06.485Z,28.50
2019-03-30T06:54:14.891Z,28.70
2019-03-30T06:57:14.275Z,28.70
2019-03-30T07:00:38.451Z,28.70
2019-03-30T07:16:44.420Z,28.90
2019-03-30T07:23:15.076Z,28.80
2019-03-30T07:26:17.863Z,28.80
2019-03-30T07:29:12.724Z,28.90
2019-03-30T07:32:06.055Z,28.90
2019-03-30T07:35:24.027Z,29.00
2019-03-30T07:38:20.571Z,29.00
2019-03-30T07:41:39.628Z,29.10
2019-03-30T07:44:47.366Z,29.10
2019-03-30T07:47:45.784Z,29.00
2019-03-30T07:50:54.907Z,29.00
2019-03-30T07:53:48.826Z,29.00
2019-03-30T07:57:04.293Z,29.10
2019-03-30T08:00:06.142Z,29.10
2019-03-30T08:10:10.146Z,29.20
2019-03-30T08:13:07.097Z,29.30
2019-03-30T08:16:02.123Z,29.30
2019-03-30T08:18:57.836Z,29.30
2019-03-30T08:21:54.894Z,29.30
2019-03-30T08:24:49.134Z,29.30
2019-03-30T08:27:42.873Z,29.30
2019-03-30T08:30:36.139Z,29.40
2019-03-30T08:33:35.917Z,29.40
2019-03-30T08:36:28.878Z,29.40
2019-03-30T08:39:21.838Z,29.40
2019-03-30T08:42:22.351Z,29.40
2019-03-30T08:45:15.860Z,29.30
2019-03-30T08:48:09.979Z,29.40
2019-03-30T08:51:04.459Z,29.40
2019-03-30T08:54:03.143Z,29.40
2019-03-30T08:56:56.448Z,29.40
2019-03-30T08:59:49.612Z,29.50
2019-03-30T09:02:46.355Z,29.50
2019-03-30T09:05:39.571Z,29.50
2019-03-30T09:08:36.539Z,29.50
2019-03-30T09:11:35.161Z,29.60
2019-03-30T09:14:33.073Z,29.60
2019-03-30T09:17:28.505Z,29.70
2019-03-30T09:20:31.132Z,29.70
2019-03-30T09:23:26.429Z,29.70
2019-03-30T09:26:21.692Z,29.70
2019-03-30T09:29:15.871Z,29.70
2019-03-30T09:32:16.989Z,29.70
2019-03-30T09:35:16.173Z,29.70
2019-03-30T09:38:14.808Z,29.70
2019-03-30T09:41:12.421Z,29.80
2019-03-30T09:44:06.331Z,29.80
2019-03-30T09:47:04.169Z,29.80
2019-03-30T09:50:03.025Z,29.90
2019-03-30T09:53:06.870Z,29.90
2019-03-30T09:56:02.237Z,29.90
2019-03-30T09:58:55.305Z,30.00
2019-03-30T10:01:51.639Z,30.00
2019-03-30T10:04:52.371Z,30.00
2019-03-30T10:07:46.203Z,30.00
2019-03-30T10:10:45.033Z,30.00
2019-03-30T10:13:39.412Z,30.00
2019-03-30T10:16:34.430Z,30.10
2019-03-30T10:19:36.183Z,30.10
2019-03-30T10:22:29.980Z,30.10
2019-03-30T10:25:28.618Z,30.10
2019-03-30T10:28:27.065Z,30.10
2019-03-30T10:31:24.712Z,30.10
2019-03-30T10:34:25.871Z,30.20
2019-03-30T10:37:20.463Z,30.20
2019-03-30T10:40:14.898Z,30.30
2019-03-30T10:43:11.084Z,30.30
2019-03-30T10:46:09.267Z,30.30
2019-03-30T10:49:05.157Z,30.40
2019-03-30T10:52:02.109Z,30.40
2019-03-30T10:54:58.700Z,30.30
2019-03-30T10:57:51.988Z,30.30
2019-03-30T11:00:46.258Z,30.30
2019-03-30T11:03:49.432Z,30.20
2019-03-30T11:06:42.978Z,30.20
2019-03-30T11:09:43.332Z,30.20
2019-03-30T11:12:55.426Z,30.20
2019-03-30T11:15:55.376Z,30.10
2019-03-30T11:18:50.574Z,30.10
2019-03-30T11:21:48.970Z,30.10
2019-03-30T11:24:42.710Z,30.00
2019-03-30T11:27:44.667Z,30.00
2019-03-30T11:31:05.098Z,30.00
2019-03-30T11:34:01.906Z,29.90
2019-03-30T11:37:04.148Z,29.60
2019-03-30T11:39:57.311Z,29.40
2019-03-30T11:42:55.875Z,29.30
2019-03-30T11:45:58.589Z,29.20
2019-03-30T11:49:13.842Z,29.10
2019-03-30T11:52:12.535Z,29.10
2019-03-30T11:55:21.776Z,29.10
2019-03-30T11:58:07.247Z,29.00
2019-03-30T12:01:03.003Z,29.00
2019-03-30T12:04:00.986Z,29.10
2019-03-30T12:07:02.582Z,29.00
2019-03-30T12:10:01.409Z,29.00
2019-03-30T12:13:13.280Z,28.90
2019-03-30T12:16:09.622Z,28.90
2019-03-30T12:19:11.226Z,28.90
2019-03-30T12:22:15.380Z,28.90
2019-03-30T12:25:35.497Z,28.90
2019-03-30T12:28:24.332Z,28.90
2019-03-30T12:31:25.528Z,28.90
2019-03-30T12:34:22.760Z,28.90
2019-03-30T12:37:17.494Z,29.00
2019-03-30T12:40:13.837Z,28.90
2019-03-30T12:43:10.261Z,28.80
2019-03-30T12:46:15.366Z,28.80
2019-03-30T12:49:08.992Z,28.80
2019-03-30T12:52:26.359Z,28.80
2019-03-30T12:55:18.915Z,28.70
